Terminal Aerodrome Forecast
Issued by NWS

Current Version | Previous Version | Text Only | Print | Product List | Glossary Off
Versions: 1 2 3 4 5 6 7 8 9 10 11 12 13 14 15

000
FTUS41 KPBZ 181700
TAFMGW
TAF
KMGW 181730Z 1818/1918 26005KT P6SM OVC025
     FM190200 26006KT 4SM -SN OVC015
     FM191000 27004KT P6SM OVC015=

USA.gov is the U.S. government's official web portal to all federal, state and local government web resources and services.